createdAt,value
2019-04-28T00:01:35.265Z,9.80
2019-04-28T00:04:04.104Z,9.80
2019-04-28T00:06:32.605Z,9.80
2019-04-28T00:09:01.780Z,9.80
2019-04-28T00:11:31.693Z,9.80
2019-04-28T00:14:01.855Z,9.80
2019-04-28T00:16:31.292Z,9.70
2019-04-28T00:19:01.125Z,9.70
2019-04-28T00:21:34.736Z,9.80
2019-04-28T00:24:21.114Z,9.70
2019-04-28T00:26:52.316Z,9.70
2019-04-28T00:29:21.067Z,9.70
2019-04-28T00:31:51.301Z,9.70
2019-04-28T00:34:21.238Z,9.70
2019-04-28T00:36:53.334Z,9.70
2019-04-28T00:39:22.743Z,9.70
2019-04-28T00:41:51.725Z,9.70
2019-04-28T00:44:21.879Z,9.70
2019-04-28T00:46:51.201Z,9.70
2019-04-28T00:49:23.253Z,9.60
2019-04-28T00:51:51.852Z,9.60
2019-04-28T00:54:21.814Z,9.70
2019-04-28T00:56:51.687Z,9.70
2019-04-28T00:59:21.689Z,9.60
2019-04-28T01:01:52.179Z,9.60
2019-04-28T01:04:21.915Z,9.60
2019-04-28T01:06:51.994Z,9.60
2019-04-28T01:09:21.864Z,9.60
2019-04-28T01:11:51.155Z,9.60
2019-04-28T01:14:21.469Z,9.70
2019-04-28T01:16:54.644Z,9.80
2019-04-28T01:19:24.762Z,9.80
2019-04-28T01:21:57.594Z,9.80
2019-04-28T01:24:26.191Z,9.80
2019-04-28T01:26:56.125Z,9.80
2019-04-28T01:29:31.890Z,9.70
2019-04-28T01:32:02.049Z,9.70
2019-04-28T01:34:30.518Z,9.70
2019-04-28T01:36:59.806Z,9.70
2019-04-28T01:39:29.692Z,9.70
2019-04-28T01:41:59.527Z,9.70
2019-04-28T01:44:29.632Z,9.70
2019-04-28T01:46:59.632Z,9.60
2019-04-28T01:49:29.464Z,9.60
2019-04-28T01:52:01.000Z,9.50
2019-04-28T01:54:30.381Z,9.60
2019-04-28T01:57:01.144Z,9.50
2019-04-28T01:59:30.213Z,9.40
2019-04-28T02:02:00.046Z,9.40
2019-04-28T02:04:30.045Z,9.40
2019-04-28T02:06:59.892Z,9.50
2019-04-28T02:09:29.680Z,9.50
2019-04-28T02:12:00.621Z,9.40
2019-04-28T02:14:30.624Z,9.30
2019-04-28T02:17:00.528Z,9.20
2019-04-28T02:19:30.610Z,9.10
2019-04-28T02:22:04.300Z,9.00
2019-04-28T02:24:34.400Z,8.90
2019-04-28T02:27:03.120Z,8.80
2019-04-28T02:29:31.717Z,8.90
2019-04-28T02:32:02.209Z,8.90
2019-04-28T02:34:31.344Z,8.80
2019-04-28T02:37:01.421Z,8.80
2019-04-28T02:39:31.519Z,8.90
2019-04-28T02:42:01.309Z,8.90
2019-04-28T02:44:34.471Z,8.90
2019-04-28T02:47:01.308Z,8.80
2019-04-28T02:49:34.500Z,8.80
2019-04-28T02:52:07.397Z,8.80
2019-04-28T02:54:35.928Z,8.70
2019-04-28T02:57:04.402Z,8.70
2019-04-28T02:59:32.973Z,8.70
2019-04-28T03:02:01.655Z,8.80
2019-04-28T03:04:30.969Z,8.70
2019-04-28T03:07:01.297Z,8.70
2019-04-28T03:09:30.774Z,8.70
2019-04-28T03:12:01.419Z,8.70
2019-04-28T03:14:30.443Z,8.60
2019-04-28T03:17:00.851Z,8.50
2019-04-28T03:19:33.677Z,8.40
2019-04-28T03:22:01.360Z,8.30
2019-04-28T03:24:31.533Z,8.20
2019-04-28T03:27:13.795Z,8.20
2019-04-28T03:29:44.010Z,8.10
2019-04-28T03:32:39.358Z,8.10
2019-04-28T03:34:56.520Z,8.00
2019-04-28T03:37:25.132Z,8.00
2019-04-28T03:39:53.786Z,8.00
2019-04-28T03:42:22.725Z,7.90
2019-04-28T03:44:51.452Z,7.90
2019-04-28T03:47:21.316Z,7.90
2019-04-28T03:49:50.713Z,7.80
2019-04-28T03:52:21.195Z,7.90
2019-04-28T03:54:50.913Z,7.80
2019-04-28T03:57:21.535Z,7.90
2019-04-28T03:59:51.090Z,7.90
2019-04-28T04:02:23.017Z,7.80
2019-04-28T04:04:52.652Z,7.80
2019-04-28T04:07:21.485Z,7.80
2019-04-28T04:09:52.528Z,7.80
2019-04-28T04:12:25.452Z,7.70
2019-04-28T04:14:55.549Z,7.80
2019-04-28T04:17:27.277Z,7.80
2019-04-28T04:19:55.775Z,7.80
2019-04-28T04:22:24.344Z,7.90
2019-04-28T04:24:52.871Z,8.00
2019-04-28T04:27:21.371Z,8.00
2019-04-28T04:29:50.994Z,7.90
2019-04-28T04:32:26.232Z,7.90
2019-04-28T04:34:50.657Z,7.90
2019-04-28T04:37:20.492Z,7.80
2019-04-28T04:39:51.406Z,7.80
2019-04-28T04:42:20.560Z,7.70
2019-04-28T04:44:50.161Z,7.80
2019-04-28T04:47:21.046Z,7.90
2019-04-28T04:49:50.476Z,7.90
2019-04-28T04:52:20.281Z,7.90
2019-04-28T04:54:51.028Z,8.00
2019-04-28T04:57:20.766Z,8.00
2019-04-28T04:59:50.079Z,8.00
2019-04-28T05:02:29.641Z,8.00
2019-04-28T05:05:00.508Z,8.00
2019-04-28T05:07:29.761Z,8.00
2019-04-28T05:09:59.514Z,8.00
2019-04-28T05:12:28.476Z,8.00
2019-04-28T05:14:56.948Z,8.10
2019-04-28T05:17:25.439Z,8.10
2019-04-28T05:19:53.989Z,8.10
2019-04-28T05:22:24.106Z,8.20
2019-04-28T05:24:57.040Z,8.20
2019-04-28T05:27:25.909Z,8.20
2019-04-28T05:29:56.750Z,8.20
2019-04-28T05:32:24.940Z,8.10
2019-04-28T05:34:53.472Z,8.20
2019-04-28T05:37:21.929Z,8.10
2019-04-28T05:39:52.615Z,8.20
2019-04-28T05:42:20.602Z,8.20
2019-04-28T05:44:49.633Z,8.20
2019-04-28T05:47:20.202Z,8.20
2019-04-28T05:49:51.425Z,8.30
2019-04-28T05:52:40.194Z,8.20
2019-04-28T05:55:16.069Z,8.30
2019-04-28T05:57:56.580Z,8.30
2019-04-28T06:00:32.907Z,8.40
2019-04-28T06:03:05.604Z,8.40
2019-04-28T06:05:34.059Z,8.40
2019-04-28T06:08:04.193Z,8.30
2019-04-28T06:10:32.817Z,8.40
2019-04-28T06:13:01.337Z,8.50
2019-04-28T06:15:29.844Z,8.50
2019-04-28T06:18:00.033Z,8.50
2019-04-28T06:20:30.273Z,8.50
2019-04-28T06:22:58.829Z,8.50
2019-04-28T06:25:27.309Z,8.50
2019-04-28T06:27:55.861Z,8.50
2019-04-28T06:30:24.504Z,8.40
2019-04-28T06:32:53.052Z,8.50
2019-04-28T06:35:21.612Z,8.50
2019-04-28T06:37:50.174Z,8.50
2019-04-28T06:40:18.643Z,8.60
2019-04-28T06:42:47.140Z,8.60
2019-04-28T06:45:15.855Z,8.70
2019-04-28T06:47:44.334Z,8.90
2019-04-28T06:50:13.162Z,8.90
2019-04-28T06:52:41.630Z,8.90
2019-04-28T06:55:10.394Z,8.90
2019-04-28T06:57:38.916Z,9.00
2019-04-28T07:00:08.794Z,9.20
2019-04-28T07:02:37.376Z,9.30
2019-04-28T07:05:07.854Z,9.40
2019-04-28T07:07:36.333Z,9.50
2019-04-28T07:10:07.262Z,9.70
2019-04-28T07:12:35.785Z,9.80
2019-04-28T07:15:05.714Z,10.00
2019-04-28T07:17:34.374Z,10.10
2019-04-28T07:20:16.223Z,10.00
2019-04-28T07:22:44.773Z,10.20
2019-04-28T07:25:13.368Z,10.20
2019-04-28T07:27:41.831Z,10.20
2019-04-28T07:30:10.730Z,9.80
2019-04-28T07:32:39.367Z,9.70
2019-04-28T07:35:07.990Z,9.70
2019-04-28T07:37:36.506Z,9.70
2019-04-28T07:40:06.622Z,9.80
2019-04-28T07:42:35.220Z,10.00
2019-04-28T07:45:05.827Z,10.30
2019-04-28T07:47:34.393Z,10.20
2019-04-28T07:50:04.562Z,10.00
2019-04-28T07:52:41.053Z,10.20
2019-04-28T07:55:09.750Z,10.40
2019-04-28T07:57:38.305Z,10.30
2019-04-28T08:00:07.318Z,10.30
2019-04-28T08:02:35.779Z,10.40
2019-04-28T08:05:06.310Z,10.30
2019-04-28T08:07:34.783Z,10.20
2019-04-28T08:10:03.681Z,10.40
2019-04-28T08:12:32.179Z,10.50
2019-04-28T08:15:00.651Z,10.90
2019-04-28T08:17:29.260Z,10.90
2019-04-28T08:19:57.817Z,10.90
2019-04-28T08:22:26.595Z,10.50
2019-04-28T08:24:55.124Z,10.80
2019-04-28T08:27:23.600Z,11.40
2019-04-28T08:29:58.374Z,11.30
2019-04-28T08:32:35.712Z,11.10
2019-04-28T08:35:05.928Z,11.00
2019-04-28T08:37:35.004Z,11.00
2019-04-28T08:40:04.512Z,11.20
2019-04-28T08:42:33.109Z,11.20
2019-04-28T08:45:01.583Z,11.00
2019-04-28T08:47:30.042Z,10.70
2019-04-28T08:50:00.165Z,10.50
2019-04-28T08:52:28.700Z,10.40
2019-04-28T08:54:57.238Z,10.30
2019-04-28T08:57:25.813Z,10.40
2019-04-28T08:59:54.277Z,10.40
2019-04-28T09:02:23.037Z,10.20
2019-04-28T09:04:51.662Z,10.20
2019-04-28T09:07:20.143Z,10.30
2019-04-28T09:09:48.712Z,10.30
2019-04-28T09:12:17.178Z,10.20
2019-04-28T09:14:45.658Z,10.10
2019-04-28T09:17:14.265Z,10.00
2019-04-28T09:19:42.735Z,10.00
2019-04-28T09:22:11.314Z,10.20
2019-04-28T09:24:39.887Z,10.20
2019-04-28T09:27:08.502Z,10.20
2019-04-28T09:29:37.013Z,10.30
2019-04-28T09:32:05.581Z,10.40
2019-04-28T09:34:34.152Z,10.20
2019-04-28T09:37:02.628Z,10.20
2019-04-28T09:39:43.123Z,10.40
2019-04-28T09:42:31.718Z,10.50
2019-04-28T09:45:02.612Z,10.40
2019-04-28T09:47:31.176Z,10.40
2019-04-28T09:49:59.730Z,10.50
2019-04-28T09:52:28.358Z,11.00
2019-04-28T09:54:56.814Z,11.30
2019-04-28T09:57:25.276Z,11.40
2019-04-28T09:59:53.807Z,11.40
2019-04-28T10:02:22.371Z,11.40
2019-04-28T10:04:50.959Z,11.50
2019-04-28T10:07:19.489Z,11.50
2019-04-28T10:09:48.006Z,11.50
2019-04-28T10:12:26.583Z,11.90
2019-04-28T10:14:46.689Z,12.50
2019-04-28T10:17:15.326Z,12.50
2019-04-28T10:19:43.910Z,12.40
2019-04-28T10:22:12.452Z,12.20
2019-04-28T10:24:40.958Z,12.10
2019-04-28T10:27:09.512Z,11.80
2019-04-28T10:29:38.133Z,11.50
2019-04-28T10:32:06.696Z,11.40
2019-04-28T10:34:35.277Z,11.30
2019-04-28T10:37:03.905Z,11.20
2019-04-28T10:39:34.033Z,11.10
2019-04-28T10:42:02.696Z,10.90
2019-04-28T10:44:32.907Z,11.00
2019-04-28T10:47:01.523Z,11.20
2019-04-28T10:49:30.124Z,11.40
2019-04-28T10:51:59.751Z,11.50
2019-04-28T10:54:28.702Z,11.50
2019-04-28T10:56:57.161Z,11.50
2019-04-28T10:59:25.648Z,11.60
2019-04-28T11:01:54.137Z,11.60
2019-04-28T11:04:39.374Z,11.50
2019-04-28T11:07:10.133Z,11.40
2019-04-28T11:09:49.467Z,11.50
2019-04-28T11:12:22.710Z,11.70
2019-04-28T11:14:51.398Z,11.50
2019-04-28T11:17:20.936Z,11.80
2019-04-28T11:19:49.389Z,12.10
2019-04-28T11:22:18.087Z,12.50
2019-04-28T11:24:46.720Z,12.50
2019-04-28T11:27:16.865Z,12.50
2019-04-28T11:29:45.373Z,12.60
2019-04-28T11:32:15.548Z,12.90
2019-04-28T11:34:48.548Z,13.00
2019-04-28T11:37:17.140Z,13.10
2019-04-28T11:39:45.750Z,13.20
2019-04-28T11:42:14.441Z,12.60
2019-04-28T11:44:43.016Z,12.80
2019-04-28T11:47:13.125Z,13.00
2019-04-28T11:49:41.622Z,13.10
2019-04-28T11:52:10.091Z,13.50
2019-04-28T11:54:38.601Z,14.10
2019-04-28T11:57:07.166Z,14.00
2019-04-28T11:59:35.641Z,14.20
2019-04-28T12:02:04.792Z,14.30
2019-04-28T12:04:33.361Z,14.40
2019-04-28T12:07:01.907Z,14.70
2019-04-28T12:09:35.073Z,14.60
2019-04-28T12:12:05.260Z,15.40
2019-04-28T12:14:35.446Z,15.60
2019-04-28T12:17:11.556Z,15.40
2019-04-28T12:19:44.456Z,14.90
2019-04-28T12:22:12.978Z,14.40
2019-04-28T12:24:41.532Z,14.00
2019-04-28T12:27:09.987Z,13.90
2019-04-28T12:29:39.039Z,14.90
2019-04-28T12:32:07.733Z,16.00
2019-04-28T12:34:36.348Z,16.00
2019-04-28T12:37:04.877Z,15.20
2019-04-28T12:39:33.725Z,14.80
2019-04-28T12:42:02.260Z,14.80
2019-04-28T12:44:30.757Z,15.60
2019-04-28T12:46:59.320Z,15.60
2019-04-28T12:49:29.533Z,15.30
2019-04-28T12:51:58.084Z,15.30
2019-04-28T12:54:28.210Z,15.90
2019-04-28T12:56:57.010Z,16.10
2019-04-28T12:59:27.127Z,16.50
2019-04-28T13:02:12.521Z,15.70
2019-04-28T13:04:54.624Z,15.50
2019-04-28T13:07:23.114Z,15.30
2019-04-28T13:09:51.647Z,14.90
2019-04-28T13:12:20.127Z,14.80
2019-04-28T13:14:48.701Z,15.10
2019-04-28T13:17:17.318Z,15.10
2019-04-28T13:19:45.867Z,14.90
2019-04-28T13:22:15.654Z,15.00
2019-04-28T13:24:44.200Z,14.90
2019-04-28T13:27:12.784Z,14.70
2019-04-28T13:29:41.343Z,14.40
2019-04-28T13:32:09.828Z,14.10
2019-04-28T13:34:40.180Z,14.10
2019-04-28T13:37:09.162Z,14.20
2019-04-28T13:39:45.407Z,14.50
2019-04-28T13:42:13.991Z,14.50
2019-04-28T13:44:50.404Z,14.10
2019-04-28T13:47:19.020Z,13.90
2019-04-28T13:49:51.938Z,13.90
2019-04-28T13:52:20.439Z,14.10
2019-04-28T13:54:50.605Z,14.10
2019-04-28T13:57:19.150Z,14.10
2019-04-28T13:59:49.289Z,13.80
2019-04-28T14:02:19.409Z,13.80
2019-04-28T14:05:07.930Z,13.80
2019-04-28T14:07:36.439Z,13.70
2019-04-28T14:10:08.664Z,13.70
2019-04-28T14:12:37.308Z,13.40
2019-04-28T14:15:06.883Z,13.50
2019-04-28T14:17:35.411Z,13.30
2019-04-28T14:20:07.580Z,13.20
2019-04-28T14:22:36.199Z,13.30
2019-04-28T14:25:07.133Z,13.50
2019-04-28T14:27:35.747Z,13.60
2019-04-28T14:30:06.649Z,13.80
2019-04-28T14:32:35.214Z,13.70
2019-04-28T14:35:05.964Z,13.80
2019-04-28T14:37:34.518Z,13.70
2019-04-28T14:40:04.493Z,13.50
2019-04-28T14:42:33.081Z,13.30
2019-04-28T14:45:01.578Z,13.20
2019-04-28T14:47:30.231Z,13.40
2019-04-28T14:49:58.980Z,13.30
2019-04-28T14:52:27.593Z,13.40
2019-04-28T14:54:56.154Z,13.60
2019-04-28T14:57:24.696Z,13.40
2019-04-28T14:59:53.230Z,13.50
2019-04-28T15:02:23.461Z,13.60
2019-04-28T15:05:09.737Z,13.70
2019-04-28T15:07:51.800Z,13.90
2019-04-28T15:10:25.045Z,14.00
2019-04-28T15:12:54.627Z,14.00
2019-04-28T15:15:23.243Z,14.10
2019-04-28T15:17:51.735Z,14.00
2019-04-28T15:20:20.357Z,14.00
2019-04-28T15:22:48.909Z,14.20
2019-04-28T15:25:17.390Z,14.50
2019-04-28T15:27:46.030Z,14.30
2019-04-28T15:30:14.615Z,14.30
2019-04-28T15:32:43.109Z,14.50
2019-04-28T15:35:11.729Z,14.40
2019-04-28T15:37:40.237Z,14.30
2019-04-28T15:40:09.394Z,14.30
2019-04-28T15:42:37.882Z,14.30
2019-04-28T15:45:06.806Z,14.60
2019-04-28T15:47:35.567Z,14.50
2019-04-28T15:50:06.228Z,14.30
2019-04-28T15:52:54.236Z,14.30
2019-04-28T15:55:53.203Z,14.40
2019-04-28T15:58:32.380Z,14.30
2019-04-28T16:01:01.428Z,14.30
2019-04-28T16:03:30.008Z,14.10
2019-04-28T16:06:00.092Z,14.20
2019-04-28T16:08:28.929Z,14.30
2019-04-28T16:10:57.623Z,14.60
2019-04-28T16:13:26.100Z,14.50
2019-04-28T16:15:54.991Z,14.40
2019-04-28T16:18:23.557Z,14.30
2019-04-28T16:20:52.027Z,14.40
2019-04-28T16:23:20.708Z,14.40
2019-04-28T16:25:49.290Z,14.50
2019-04-28T16:28:17.796Z,14.30
2019-04-28T16:30:46.410Z,14.10
2019-04-28T16:33:15.002Z,13.90
2019-04-28T16:35:43.634Z,13.90
2019-04-28T16:38:12.191Z,13.80
2019-04-28T16:40:40.942Z,13.80
2019-04-28T16:43:09.830Z,13.90
2019-04-28T16:45:38.520Z,13.90
2019-04-28T16:48:06.992Z,14.10
2019-04-28T16:50:37.099Z,14.10
2019-04-28T16:53:05.690Z,14.30
2019-04-28T16:55:38.818Z,14.30
2019-04-28T16:58:11.935Z,14.30
2019-04-28T17:00:57.618Z,14.50
2019-04-28T17:03:27.957Z,14.40
2019-04-28T17:05:56.532Z,14.50
2019-04-28T17:08:25.169Z,14.60
2019-04-28T17:10:53.781Z,14.60
2019-04-28T17:13:22.343Z,14.70
2019-04-28T17:15:52.323Z,14.70
2019-04-28T17:18:23.556Z,14.60
2019-04-28T17:20:54.909Z,14.70
2019-04-28T17:23:22.524Z,14.60
2019-04-28T17:25:51.010Z,14.70
2019-04-28T17:28:19.565Z,14.70
2019-04-28T17:30:48.121Z,14.30
2019-04-28T17:33:16.741Z,14.30
2019-04-28T17:35:45.383Z,14.40
2019-04-28T17:38:13.925Z,14.50
2019-04-28T17:40:42.481Z,14.40
2019-04-28T17:43:11.083Z,14.30
2019-04-28T17:45:40.774Z,14.30
2019-04-28T17:48:25.880Z,14.30
2019-04-28T17:50:54.669Z,14.30
2019-04-28T17:53:23.205Z,14.10
2019-04-28T17:55:51.799Z,14.00
2019-04-28T17:58:20.462Z,14.00
2019-04-28T18:00:56.429Z,13.90
2019-04-28T18:03:44.846Z,13.90
2019-04-28T18:06:35.870Z,13.90
2019-04-28T18:09:07.709Z,13.90
2019-04-28T18:11:38.093Z,13.80
2019-04-28T18:14:08.318Z,13.60
2019-04-28T18:16:41.431Z,13.70
2019-04-28T18:19:17.355Z,13.70
2019-04-28T18:21:45.828Z,13.60
2019-04-28T18:24:14.437Z,13.60
2019-04-28T18:26:42.964Z,13.60
2019-04-28T18:29:11.434Z,13.60
2019-04-28T18:31:44.695Z,13.50
2019-04-28T18:34:29.650Z,13.50
2019-04-28T18:37:12.037Z,13.50
2019-04-28T18:40:00.603Z,13.40
2019-04-28T18:42:30.882Z,13.30
2019-04-28T18:44:59.418Z,13.30
2019-04-28T18:47:27.946Z,13.20
2019-04-28T18:49:56.507Z,13.20
2019-04-28T18:52:24.966Z,13.20
2019-04-28T18:54:53.474Z,13.10
2019-04-28T18:57:22.028Z,13.10
2019-04-28T18:59:50.643Z,13.10
2019-04-28T19:02:23.618Z,13.00
2019-04-28T19:04:52.396Z,13.00
2019-04-28T19:07:48.056Z,13.00
2019-04-28T19:10:24.303Z,13.00
2019-04-28T19:13:09.583Z,12.90
2019-04-28T19:15:39.960Z,12.90
2019-04-28T19:18:15.981Z,12.80
2019-04-28T19:20:44.653Z,12.80
2019-04-28T19:23:13.177Z,12.80
2019-04-28T19:25:41.828Z,12.70
2019-04-28T19:28:10.378Z,12.70
2019-04-28T19:30:39.693Z,12.60
2019-04-28T19:33:08.309Z,12.60
2019-04-28T19:35:36.918Z,12.60
2019-04-28T19:38:05.453Z,12.60
2019-04-28T19:40:34.077Z,12.60
2019-04-28T19:43:02.754Z,12.50
2019-04-28T19:45:32.942Z,12.50
2019-04-28T19:48:01.441Z,12.40
2019-04-28T19:50:30.004Z,12.40
2019-04-28T19:52:58.568Z,12.40
2019-04-28T19:55:28.845Z,12.30
2019-04-28T19:58:01.471Z,12.30
2019-04-28T20:00:31.617Z,12.20
2019-04-28T20:03:00.252Z,12.10
2019-04-28T20:05:28.765Z,12.10
2019-04-28T20:07:57.298Z,12.10
2019-04-28T20:10:25.806Z,12.00
2019-04-28T20:12:54.280Z,11.90
2019-04-28T20:15:22.748Z,11.80
2019-04-28T20:17:51.349Z,11.60
2019-04-28T20:20:20.014Z,11.50
2019-04-28T20:22:48.536Z,11.50
2019-04-28T20:25:17.033Z,11.40
2019-04-28T20:27:45.559Z,11.40
2019-04-28T20:30:14.303Z,11.30
2019-04-28T20:32:46.607Z,11.30
2019-04-28T20:35:17.163Z,11.20
2019-04-28T20:37:53.093Z,11.20
2019-04-28T20:40:32.669Z,11.10
2019-04-28T20:43:08.764Z,11.10
2019-04-28T20:45:37.217Z,11.10
2019-04-28T20:48:05.844Z,11.10
2019-04-28T20:50:34.403Z,11.10
2019-04-28T20:53:02.953Z,11.00
2019-04-28T20:55:31.598Z,10.90
2019-04-28T20:58:00.077Z,10.80
2019-04-28T21:00:28.778Z,10.70
2019-04-28T21:02:57.308Z,10.60
2019-04-28T21:05:25.774Z,10.50
2019-04-28T21:07:54.273Z,10.50
2019-04-28T21:10:22.785Z,10.50
2019-04-28T21:12:51.351Z,10.40
2019-04-28T21:15:19.894Z,10.30
2019-04-28T21:17:48.406Z,10.30
2019-04-28T21:20:16.947Z,10.10
2019-04-28T21:22:45.436Z,10.00
2019-04-28T21:25:14.203Z,10.00
2019-04-28T21:27:42.741Z,9.90
2019-04-28T21:30:11.742Z,9.90
2019-04-28T21:32:40.219Z,9.90
2019-04-28T21:35:09.062Z,9.80
2019-04-28T21:37:37.521Z,9.80
2019-04-28T21:40:10.393Z,9.70
2019-04-28T21:42:52.606Z,9.60
2019-04-28T21:45:38.716Z,9.60
2019-04-28T21:48:07.235Z,9.60
2019-04-28T21:50:35.791Z,9.60
2019-04-28T21:53:04.322Z,9.60
2019-04-28T21:55:32.821Z,9.60
2019-04-28T21:58:01.301Z,9.60
2019-04-28T22:00:52.464Z,9.50
2019-04-28T22:03:20.917Z,9.50
2019-04-28T22:05:49.560Z,9.50
2019-04-28T22:08:18.194Z,9.50
2019-04-28T22:10:46.649Z,9.50
2019-04-28T22:13:15.201Z,9.50
2019-04-28T22:15:43.816Z,9.40
2019-04-28T22:18:12.295Z,9.30
2019-04-28T22:20:40.749Z,9.20
2019-04-28T22:23:18.816Z,9.00
2019-04-28T22:25:47.050Z,9.00
2019-04-28T22:28:15.527Z,8.90
2019-04-28T22:30:44.025Z,8.90
2019-04-28T22:33:12.504Z,8.80
2019-04-28T22:35:40.968Z,8.80
2019-04-28T22:38:09.493Z,8.80
2019-04-28T22:40:37.958Z,8.80
2019-04-28T22:43:06.583Z,8.90
2019-04-28T22:45:35.065Z,8.90
2019-04-28T22:48:04.458Z,8.90
2019-04-28T22:50:41.616Z,8.90
2019-04-28T22:53:10.609Z,8.90
2019-04-28T22:55:40.807Z,8.80
2019-04-28T22:58:10.932Z,8.80
2019-04-28T23:00:41.184Z,8.60
2019-04-28T23:03:12.750Z,8.50
2019-04-28T23:05:41.380Z,8.40
2019-04-28T23:08:09.929Z,8.30
2019-04-28T23:10:38.540Z,8.40
2019-04-28T23:13:07.041Z,8.40
2019-04-28T23:15:35.695Z,8.40
2019-04-28T23:18:04.465Z,8.40
2019-04-28T23:20:34.782Z,8.50
2019-04-28T23:23:05.054Z,8.40
2019-04-28T23:25:33.619Z,8.30
2019-04-28T23:28:02.091Z,8.30
2019-04-28T23:30:45.690Z,8.20
2019-04-28T23:33:14.161Z,8.20
2019-04-28T23:35:43.434Z,8.20
2019-04-28T23:38:12.038Z,8.20
2019-04-28T23:40:42.223Z,8.20
2019-04-28T23:43:21.400Z,8.10
2019-04-28T23:45:49.922Z,8.10
2019-04-28T23:48:18.402Z,8.10
2019-04-28T23:50:57.259Z,8.10
2019-04-28T23:53:45.480Z,8.10
2019-04-28T23:56:13.980Z,8.00
2019-04-28T23:58:42.522Z,8.00
